Artesian, Iowa
Current Conditions -  °F | °C
As of 2:54 AM on Monday 22 Dec 2014 (Local Time) from KALO Reporting Station
Light Rain Light Rain  
Wind Chill: 29°   Ceiling: 800
Heat Index: 37°   Visibility: 5mi
Dew Point: 36°   Wind: 13mph
Humidity: 96%   Direction: 150°SSE
Pressure: 29.76"   Gusts: 23mph
Location:  42.787°N, 92.4284°W
Report Text: KALO 220854Z AUTO 15011G20KT 5SM -RA BR OVC008 03/02 A2976 RMK AO2 RAB27 SLP083 P0000 60001 T00280022 56014
Loading
Personal Weather Stations






























Interactive Weather Map New forecast layout! Learn more

10-Day Weather Forecast

Advertisements
Track Severe Weather on mobile